createdAt,value
2017-08-06T00:02:10.665Z,18.90
2017-08-06T00:04:39.801Z,18.90
2017-08-06T00:07:08.149Z,18.90
2017-08-06T00:09:36.836Z,18.90
2017-08-06T00:12:05.101Z,18.90
2017-08-06T00:14:33.455Z,18.80
2017-08-06T00:17:02.093Z,18.80
2017-08-06T00:19:30.539Z,18.80
2017-08-06T00:21:58.993Z,18.70
2017-08-06T00:24:27.248Z,18.40
2017-08-06T00:26:55.620Z,18.30
2017-08-06T00:29:23.863Z,18.20
2017-08-06T00:31:52.116Z,18.20
2017-08-06T00:34:26.279Z,18.20
2017-08-06T00:37:00.791Z,18.20
2017-08-06T00:39:35.428Z,18.20
2017-08-06T00:42:09.610Z,18.20
2017-08-06T00:44:43.932Z,18.20
2017-08-06T00:47:18.036Z,18.20
2017-08-06T00:49:52.374Z,18.20
2017-08-06T00:52:26.584Z,18.20
2017-08-06T00:55:00.949Z,18.10
2017-08-06T00:57:35.054Z,18.10
2017-08-06T01:00:09.373Z,17.90
2017-08-06T01:02:43.518Z,17.80
2017-08-06T01:05:17.897Z,17.90
2017-08-06T01:07:52.158Z,17.90
2017-08-06T01:10:26.595Z,17.80
2017-08-06T01:13:01.305Z,17.40
2017-08-06T01:15:35.640Z,17.40
2017-08-06T01:18:09.901Z,17.40
2017-08-06T01:20:44.304Z,17.60
2017-08-06T01:23:18.404Z,17.60
2017-08-06T01:25:52.706Z,17.60
2017-08-06T01:28:26.786Z,17.60
2017-08-06T01:31:01.105Z,17.50
2017-08-06T01:33:35.272Z,17.40
2017-08-06T01:36:09.976Z,17.40
2017-08-06T01:38:44.523Z,17.40
2017-08-06T01:41:18.862Z,17.50
2017-08-06T01:43:53.434Z,17.50
2017-08-06T01:46:27.763Z,17.50
2017-08-06T01:49:02.001Z,17.50
2017-08-06T01:51:36.242Z,17.50
2017-08-06T01:54:04.493Z,17.60
2017-08-06T01:56:38.700Z,17.60
2017-08-06T01:59:12.940Z,17.60
2017-08-06T02:01:47.316Z,17.70
2017-08-06T02:04:21.576Z,17.60
2017-08-06T02:06:55.909Z,17.50
2017-08-06T02:09:30.719Z,17.50
2017-08-06T02:12:05.036Z,17.50
2017-08-06T02:14:39.200Z,17.50
2017-08-06T02:17:13.528Z,17.40
2017-08-06T02:19:47.705Z,17.50
2017-08-06T02:22:22.053Z,17.50
2017-08-06T02:24:56.215Z,17.50
2017-08-06T02:27:30.533Z,17.50
2017-08-06T02:30:04.776Z,17.50
2017-08-06T02:32:39.128Z,17.50
2017-08-06T02:35:13.715Z,17.40
2017-08-06T02:37:47.936Z,17.40
2017-08-06T02:40:22.104Z,17.40
2017-08-06T02:42:56.346Z,17.40
2017-08-06T02:45:30.599Z,17.30
2017-08-06T02:48:04.858Z,17.30
2017-08-06T02:50:39.108Z,17.30
2017-08-06T02:53:07.467Z,17.40
2017-08-06T02:55:41.671Z,17.30
2017-08-06T02:58:16.027Z,17.40
2017-08-06T03:00:50.232Z,17.40
2017-08-06T03:03:24.425Z,17.40
2017-08-06T03:05:58.520Z,17.50
2017-08-06T03:08:32.879Z,17.50
2017-08-06T03:11:07.033Z,17.50
2017-08-06T03:13:41.224Z,17.40
2017-08-06T03:16:15.804Z,17.40
2017-08-06T03:18:50.463Z,17.40
2017-08-06T03:21:24.600Z,17.40
2017-08-06T03:23:59.367Z,17.40
2017-08-06T03:26:33.604Z,17.40
2017-08-06T03:29:07.872Z,17.40
2017-08-06T03:31:42.028Z,17.40
2017-08-06T03:34:16.809Z,17.30
2017-08-06T03:36:50.920Z,17.30
2017-08-06T03:39:25.128Z,17.30
2017-08-06T03:41:59.323Z,17.40
2017-08-06T03:44:33.900Z,17.40
2017-08-06T03:47:08.099Z,17.40
2017-08-06T03:49:42.492Z,17.30
2017-08-06T03:52:16.725Z,17.30
2017-08-06T03:54:50.963Z,17.50
2017-08-06T03:57:25.276Z,17.50
2017-08-06T03:59:59.795Z,17.40
2017-08-06T04:02:33.989Z,17.40
2017-08-06T04:05:08.445Z,17.50
2017-08-06T04:07:42.555Z,17.50
2017-08-06T04:10:16.855Z,17.50
2017-08-06T04:12:51.004Z,17.40
2017-08-06T04:15:25.217Z,17.50
2017-08-06T04:17:59.772Z,17.50
2017-08-06T04:20:33.938Z,17.50
2017-08-06T04:23:08.125Z,17.40
2017-08-06T04:25:42.393Z,17.40
2017-08-06T04:28:16.570Z,17.40
2017-08-06T04:30:50.787Z,17.40
2017-08-06T04:33:25.055Z,17.30
2017-08-06T04:35:59.879Z,17.30
2017-08-06T04:38:34.018Z,17.30
2017-08-06T04:41:08.313Z,17.30
2017-08-06T04:43:42.609Z,17.30
2017-08-06T04:46:17.321Z,17.30
2017-08-06T04:48:51.456Z,17.30
2017-08-06T04:51:25.681Z,17.20
2017-08-06T04:53:59.988Z,17.20
2017-08-06T04:56:34.316Z,17.30
2017-08-06T04:59:08.598Z,17.30
2017-08-06T05:01:42.967Z,17.30
2017-08-06T05:04:17.613Z,17.40
2017-08-06T05:06:51.964Z,17.40
2017-08-06T05:09:26.052Z,17.40
2017-08-06T05:12:00.349Z,17.30
2017-08-06T05:14:34.582Z,17.40
2017-08-06T05:17:08.939Z,17.40
2017-08-06T05:19:43.208Z,17.40
2017-08-06T05:22:17.497Z,17.40
2017-08-06T05:24:52.044Z,17.80
2017-08-06T05:27:26.428Z,17.80
2017-08-06T05:30:00.602Z,17.80
2017-08-06T05:32:34.928Z,17.70
2017-08-06T05:35:10.360Z,17.60
2017-08-06T05:37:44.529Z,17.60
2017-08-06T05:40:18.864Z,17.60
2017-08-06T05:42:53.283Z,17.40
2017-08-06T05:45:27.512Z,17.30
2017-08-06T05:48:01.849Z,17.40
2017-08-06T05:50:36.367Z,17.50
2017-08-06T05:53:10.903Z,17.50
2017-08-06T05:55:45.059Z,17.40
2017-08-06T05:58:19.393Z,17.50
2017-08-06T06:00:53.694Z,17.50
2017-08-06T06:03:28.218Z,17.60
2017-08-06T06:06:02.803Z,17.70
2017-08-06T06:08:37.795Z,17.70
2017-08-06T06:11:12.132Z,17.80
2017-08-06T06:13:46.330Z,17.70
2017-08-06T06:16:20.709Z,17.60
2017-08-06T06:18:55.121Z,17.60
2017-08-06T06:21:29.734Z,17.80
2017-08-06T06:24:03.952Z,17.80
2017-08-06T06:26:38.320Z,17.80
2017-08-06T06:29:12.653Z,17.80
2017-08-06T06:31:46.795Z,17.90
2017-08-06T06:34:21.172Z,17.90
2017-08-06T06:36:55.297Z,18.10
2017-08-06T06:39:29.416Z,18.10
2017-08-06T06:42:03.591Z,18.10
2017-08-06T06:44:37.840Z,18.40
2017-08-06T06:47:12.096Z,18.80
2017-08-06T06:49:46.777Z,19.00
2017-08-06T06:52:21.016Z,19.00
2017-08-06T06:54:55.261Z,18.90
2017-08-06T06:57:29.456Z,18.80
2017-08-06T07:00:03.931Z,18.90
2017-08-06T07:02:38.221Z,19.00
2017-08-06T07:05:12.519Z,19.00
2017-08-06T07:07:46.648Z,18.90
2017-08-06T07:10:20.961Z,18.80
2017-08-06T07:12:55.228Z,18.70
2017-08-06T07:15:29.556Z,18.60
2017-08-06T07:18:03.858Z,18.60
2017-08-06T07:20:38.158Z,18.90
2017-08-06T07:23:12.652Z,18.80
2017-08-06T07:25:46.987Z,18.80
2017-08-06T07:28:21.250Z,18.90
2017-08-06T07:30:55.502Z,19.10
2017-08-06T07:33:30.089Z,18.80
2017-08-06T07:36:04.496Z,18.80
2017-08-06T07:38:38.600Z,18.80
2017-08-06T07:41:13.705Z,18.60
2017-08-06T07:43:47.931Z,18.60
2017-08-06T07:46:22.226Z,18.80
2017-08-06T07:48:56.924Z,18.70
2017-08-06T07:51:31.089Z,18.70
2017-08-06T07:54:05.981Z,18.80
2017-08-06T07:56:40.304Z,18.90
2017-08-06T07:59:15.184Z,18.70
2017-08-06T08:01:49.353Z,18.70
2017-08-06T08:04:24.432Z,18.60
2017-08-06T08:06:58.770Z,18.70
2017-08-06T08:09:33.031Z,18.70
2017-08-06T08:12:07.454Z,18.70
2017-08-06T08:14:41.728Z,18.90
2017-08-06T08:17:16.485Z,18.90
2017-08-06T08:19:50.798Z,18.90
2017-08-06T08:22:25.136Z,18.80
2017-08-06T08:24:59.282Z,18.80
2017-08-06T08:27:33.912Z,18.90
2017-08-06T08:30:08.046Z,18.90
2017-08-06T08:32:42.188Z,19.10
2017-08-06T08:35:16.322Z,19.30
2017-08-06T08:37:50.504Z,19.10
2017-08-06T08:40:24.648Z,19.10
2017-08-06T08:42:58.993Z,19.30
2017-08-06T08:45:33.158Z,19.40
2017-08-06T08:48:02.361Z,19.40
2017-08-06T08:50:30.603Z,19.20
2017-08-06T08:52:58.870Z,19.40
2017-08-06T08:55:27.467Z,19.70
2017-08-06T08:57:55.777Z,19.60
2017-08-06T09:00:24.072Z,19.80
2017-08-06T09:02:52.325Z,19.90
2017-08-06T09:05:26.601Z,20.00
2017-08-06T09:08:00.732Z,19.50
2017-08-06T09:10:34.968Z,19.40
2017-08-06T09:13:09.710Z,19.30
2017-08-06T09:15:43.973Z,19.30
2017-08-06T09:18:18.104Z,19.40
2017-08-06T09:20:52.697Z,19.90
2017-08-06T09:23:26.818Z,19.90
2017-08-06T09:26:01.214Z,20.00
2017-08-06T09:28:35.357Z,19.80
2017-08-06T09:31:10.348Z,19.80
2017-08-06T09:33:44.473Z,20.20
2017-08-06T09:36:18.808Z,20.00
2017-08-06T09:38:52.944Z,20.00
2017-08-06T09:41:27.503Z,20.00
2017-08-06T09:44:01.638Z,20.00
2017-08-06T09:46:35.874Z,20.00
2017-08-06T09:49:10.385Z,20.00
2017-08-06T09:51:44.604Z,20.10
2017-08-06T09:54:18.686Z,19.90
2017-08-06T09:56:53.201Z,20.10
2017-08-06T09:59:27.459Z,20.20
2017-08-06T10:02:01.669Z,19.80
2017-08-06T10:04:35.902Z,19.80
2017-08-06T10:07:10.169Z,19.60
2017-08-06T10:09:44.316Z,19.50
2017-08-06T10:12:12.736Z,19.70
2017-08-06T10:14:46.922Z,19.90
2017-08-06T10:17:21.252Z,20.10
2017-08-06T10:19:56.081Z,20.40
2017-08-06T10:22:30.344Z,20.40
2017-08-06T10:25:04.458Z,20.20
2017-08-06T10:27:38.871Z,20.00
2017-08-06T10:30:13.559Z,20.10
2017-08-06T10:32:47.824Z,20.10
2017-08-06T10:35:22.226Z,19.90
2017-08-06T10:37:56.598Z,19.80
2017-08-06T10:40:31.013Z,19.80
2017-08-06T10:43:05.257Z,19.60
2017-08-06T10:45:39.668Z,19.60
2017-08-06T10:48:14.049Z,19.80
2017-08-06T10:50:48.236Z,19.70
2017-08-06T10:53:22.687Z,19.60
2017-08-06T10:55:57.356Z,19.50
2017-08-06T10:58:31.712Z,19.50
2017-08-06T11:01:05.996Z,19.50
2017-08-06T11:03:40.882Z,18.90
2017-08-06T11:06:15.074Z,18.50
2017-08-06T11:08:49.420Z,18.40
2017-08-06T11:11:24.210Z,18.30
2017-08-06T11:13:58.454Z,18.30
2017-08-06T11:16:32.720Z,18.40
2017-08-06T11:19:07.069Z,18.50
2017-08-06T11:21:41.216Z,18.50
2017-08-06T11:24:15.648Z,18.40
2017-08-06T11:26:49.928Z,18.50
2017-08-06T11:29:24.286Z,18.50
2017-08-06T11:31:52.524Z,18.70
2017-08-06T11:34:26.925Z,18.70
2017-08-06T11:37:01.148Z,18.70
2017-08-06T11:39:35.837Z,18.50
2017-08-06T11:42:09.958Z,18.50
2017-08-06T11:44:44.324Z,18.30
2017-08-06T11:47:18.632Z,18.30
2017-08-06T11:49:52.810Z,18.20
2017-08-06T11:52:27.425Z,18.00
2017-08-06T11:55:01.738Z,18.00
2017-08-06T11:57:36.008Z,17.80
2017-08-06T12:00:10.448Z,17.80
2017-08-06T12:02:44.832Z,17.80
2017-08-06T12:05:19.172Z,17.80
2017-08-06T12:07:53.311Z,17.60
2017-08-06T12:10:27.740Z,17.60
2017-08-06T12:13:01.920Z,17.50
2017-08-06T12:15:36.281Z,17.40
2017-08-06T12:18:10.601Z,17.40
2017-08-06T12:20:45.309Z,17.40
2017-08-06T12:23:19.482Z,17.40
2017-08-06T12:25:54.237Z,17.40
2017-08-06T12:28:28.533Z,17.40
2017-08-06T12:31:02.838Z,17.50
2017-08-06T12:33:37.194Z,17.60
2017-08-06T12:36:11.357Z,17.60
2017-08-06T12:38:45.505Z,17.70
2017-08-06T12:41:14.209Z,17.80
2017-08-06T12:43:42.449Z,17.80
2017-08-06T12:46:10.711Z,17.90
2017-08-06T12:48:38.981Z,17.90
2017-08-06T12:51:13.300Z,18.00
2017-08-06T12:53:47.677Z,18.00
2017-08-06T12:56:22.951Z,17.80
2017-08-06T12:58:57.324Z,17.90
2017-08-06T13:01:31.566Z,18.00
2017-08-06T13:04:05.785Z,18.00
2017-08-06T13:06:39.922Z,17.80
2017-08-06T13:09:14.053Z,17.80
2017-08-06T13:11:48.557Z,18.00
2017-08-06T13:14:22.853Z,18.00
2017-08-06T13:16:57.024Z,18.10
2017-08-06T13:19:31.195Z,18.20
2017-08-06T13:22:05.307Z,18.10
2017-08-06T13:24:40.087Z,18.00
2017-08-06T13:27:14.326Z,18.00
2017-08-06T13:29:48.570Z,17.90
2017-08-06T13:32:22.853Z,17.80
2017-08-06T13:34:57.194Z,17.80
2017-08-06T13:37:31.474Z,17.90
2017-08-06T13:40:05.637Z,17.80
2017-08-06T13:42:40.575Z,17.70
2017-08-06T13:45:15.342Z,17.70
2017-08-06T13:47:49.484Z,17.70
2017-08-06T13:50:24.059Z,17.80
2017-08-06T13:52:58.252Z,17.80
2017-08-06T13:55:32.611Z,17.90
2017-08-06T13:58:06.759Z,18.00
2017-08-06T14:00:41.153Z,18.00
2017-08-06T14:03:15.727Z,18.10
2017-08-06T14:05:50.482Z,18.20
2017-08-06T14:08:24.646Z,18.20
2017-08-06T14:10:59.725Z,18.10
2017-08-06T14:13:33.975Z,18.10
2017-08-06T14:16:08.239Z,18.30
2017-08-06T14:18:42.524Z,18.30
2017-08-06T14:21:16.748Z,18.40
2017-08-06T14:23:50.896Z,18.30
2017-08-06T14:26:25.288Z,18.30
2017-08-06T14:28:59.420Z,18.40
2017-08-06T14:31:33.705Z,18.50
2017-08-06T14:34:07.817Z,18.40
2017-08-06T14:36:42.143Z,18.20
2017-08-06T14:39:16.403Z,18.10
2017-08-06T14:41:50.617Z,17.90
2017-08-06T14:44:24.917Z,18.00
2017-08-06T14:46:59.492Z,17.90
2017-08-06T14:49:33.628Z,17.90
2017-08-06T14:52:08.047Z,17.90
2017-08-06T14:54:42.232Z,17.80
2017-08-06T14:57:16.410Z,17.90
2017-08-06T14:59:50.550Z,17.90
2017-08-06T15:02:24.937Z,17.80
2017-08-06T15:04:59.061Z,17.70
2017-08-06T15:07:33.558Z,17.80
2017-08-06T15:10:08.067Z,17.80
2017-08-06T15:12:42.734Z,17.80
2017-08-06T15:15:16.832Z,17.80
2017-08-06T15:17:51.640Z,18.00
2017-08-06T15:20:25.811Z,18.00
2017-08-06T15:23:00.215Z,18.10
2017-08-06T15:25:34.400Z,18.30
2017-08-06T15:28:08.729Z,18.80
2017-08-06T15:30:42.973Z,19.30
2017-08-06T15:33:17.360Z,19.30
2017-08-06T15:35:51.605Z,19.20
2017-08-06T15:38:25.765Z,19.00
2017-08-06T15:40:59.977Z,18.70
2017-08-06T15:43:34.640Z,18.60
2017-08-06T15:46:08.792Z,18.60
2017-08-06T15:48:43.189Z,18.60
2017-08-06T15:51:17.496Z,18.60
2017-08-06T15:53:51.795Z,18.70
2017-08-06T15:56:25.980Z,18.70
2017-08-06T15:59:00.180Z,18.70
2017-08-06T16:01:34.355Z,18.40
2017-08-06T16:04:08.984Z,18.50
2017-08-06T16:06:43.223Z,18.60
2017-08-06T16:09:17.515Z,18.70
2017-08-06T16:11:51.738Z,18.70
2017-08-06T16:14:26.155Z,18.90
2017-08-06T16:17:00.328Z,19.00
2017-08-06T16:19:34.716Z,19.00
2017-08-06T16:22:08.884Z,19.00
2017-08-06T16:24:43.245Z,19.00
2017-08-06T16:27:17.432Z,19.00
2017-08-06T16:29:51.740Z,18.80
2017-08-06T16:32:25.905Z,18.60
2017-08-06T16:35:00.217Z,18.70
2017-08-06T16:37:34.365Z,18.80
2017-08-06T16:40:08.553Z,18.70
2017-08-06T16:42:42.704Z,18.60
2017-08-06T16:45:16.844Z,18.30
2017-08-06T16:47:51.042Z,18.30
2017-08-06T16:50:29.300Z,18.30
2017-08-06T16:53:03.585Z,18.30
2017-08-06T16:55:37.878Z,18.30
2017-08-06T16:58:12.029Z,18.10
2017-08-06T17:00:46.358Z,17.90
2017-08-06T17:03:20.629Z,17.90
2017-08-06T17:05:54.949Z,17.90
2017-08-06T17:08:29.163Z,18.00
2017-08-06T17:11:03.430Z,18.30
2017-08-06T17:13:37.713Z,18.20
2017-08-06T17:16:06.083Z,18.40
2017-08-06T17:18:34.959Z,18.30
2017-08-06T17:21:03.198Z,18.50
2017-08-06T17:23:31.461Z,18.60
2017-08-06T17:25:59.713Z,18.70
2017-08-06T17:28:27.984Z,18.70
2017-08-06T17:30:56.220Z,18.70
2017-08-06T17:33:24.501Z,18.50
2017-08-06T17:35:58.697Z,18.70
2017-08-06T17:38:32.831Z,18.60
2017-08-06T17:41:01.117Z,18.50
2017-08-06T17:43:29.359Z,18.50
2017-08-06T17:45:57.601Z,18.50
2017-08-06T17:48:26.368Z,18.40
2017-08-06T17:50:54.605Z,18.40
2017-08-06T17:53:22.868Z,18.40
2017-08-06T17:55:51.122Z,18.20
2017-08-06T17:58:19.365Z,18.20
2017-08-06T18:00:47.667Z,18.30
2017-08-06T18:03:15.972Z,18.30
2017-08-06T18:05:44.333Z,18.30
2017-08-06T18:08:12.580Z,18.10
2017-08-06T18:10:41.693Z,18.10
2017-08-06T18:13:09.952Z,18.20
2017-08-06T18:15:38.206Z,18.00
2017-08-06T18:18:06.481Z,17.80
2017-08-06T18:20:34.748Z,17.70
2017-08-06T18:23:03.248Z,17.70
2017-08-06T18:25:31.492Z,17.70
2017-08-06T18:27:59.731Z,17.60
2017-08-06T18:30:27.991Z,17.60
2017-08-06T18:32:56.244Z,17.70
2017-08-06T18:35:24.492Z,17.70
2017-08-06T18:37:52.766Z,17.60
2017-08-06T18:40:21.019Z,17.60
2017-08-06T18:42:49.384Z,17.50
2017-08-06T18:45:17.632Z,17.30
2017-08-06T18:47:45.883Z,17.20
2017-08-06T18:50:14.160Z,17.20
2017-08-06T18:52:42.416Z,17.20
2017-08-06T18:55:10.705Z,17.20
2017-08-06T18:57:38.966Z,17.10
2017-08-06T19:00:07.217Z,17.00
2017-08-06T19:02:35.472Z,17.10
2017-08-06T19:05:03.721Z,17.10
2017-08-06T19:07:32.006Z,17.10
2017-08-06T19:10:00.302Z,17.10
2017-08-06T19:12:28.557Z,17.00
2017-08-06T19:14:56.814Z,17.00
2017-08-06T19:17:25.057Z,17.00
2017-08-06T19:19:53.333Z,16.90
2017-08-06T19:22:21.575Z,17.00
2017-08-06T19:24:50.841Z,17.00
2017-08-06T19:27:19.100Z,17.00
2017-08-06T19:29:47.351Z,17.00
2017-08-06T19:32:15.653Z,17.10
2017-08-06T19:34:43.895Z,17.00
2017-08-06T19:37:12.183Z,16.80
2017-08-06T19:39:40.427Z,16.70
2017-08-06T19:42:08.677Z,16.60
2017-08-06T19:44:37.019Z,16.60
2017-08-06T19:47:05.264Z,16.70
2017-08-06T19:49:33.520Z,16.60
2017-08-06T19:52:01.776Z,16.50
2017-08-06T19:54:30.020Z,16.60
2017-08-06T19:56:58.820Z,16.60
2017-08-06T19:59:27.067Z,16.60
2017-08-06T20:01:55.317Z,16.50
2017-08-06T20:04:23.985Z,16.50
2017-08-06T20:06:52.233Z,16.50
2017-08-06T20:09:20.518Z,16.50
2017-08-06T20:11:49.173Z,16.40
2017-08-06T20:14:17.442Z,16.40
2017-08-06T20:16:45.725Z,16.30
2017-08-06T20:19:20.454Z,16.20
2017-08-06T20:21:54.613Z,16.20
2017-08-06T20:24:28.773Z,16.20
2017-08-06T20:27:03.165Z,16.10
2017-08-06T20:29:37.380Z,16.20
2017-08-06T20:32:12.029Z,16.20
2017-08-06T20:34:46.375Z,16.20
2017-08-06T20:37:15.441Z,16.20
2017-08-06T20:39:43.710Z,16.10
2017-08-06T20:42:11.956Z,16.00
2017-08-06T20:44:40.279Z,16.00
2017-08-06T20:47:08.503Z,15.90
2017-08-06T20:49:36.792Z,15.90
2017-08-06T20:52:05.031Z,16.00
2017-08-06T20:54:33.278Z,15.90
2017-08-06T20:57:02.387Z,15.90
2017-08-06T20:59:30.660Z,15.80
2017-08-06T21:01:58.934Z,15.80
2017-08-06T21:04:28.144Z,15.90
2017-08-06T21:06:56.436Z,15.90
2017-08-06T21:09:24.724Z,15.90
2017-08-06T21:11:53.145Z,16.00
2017-08-06T21:14:21.510Z,15.90
2017-08-06T21:16:49.777Z,15.90
2017-08-06T21:19:23.994Z,15.80
2017-08-06T21:21:58.298Z,15.90
2017-08-06T21:24:32.661Z,15.90
2017-08-06T21:27:06.739Z,15.80
2017-08-06T21:29:40.978Z,15.80
2017-08-06T21:32:15.541Z,15.80
2017-08-06T21:34:49.922Z,15.80
2017-08-06T21:37:18.172Z,15.80
2017-08-06T21:39:46.461Z,15.80
2017-08-06T21:42:14.707Z,15.80
2017-08-06T21:44:42.982Z,15.80
2017-08-06T21:47:11.250Z,15.80
2017-08-06T21:49:39.505Z,15.80
2017-08-06T21:52:07.768Z,15.80
2017-08-06T21:54:36.029Z,15.80
2017-08-06T21:57:04.299Z,15.70
2017-08-06T21:59:32.557Z,15.80
2017-08-06T22:02:00.895Z,15.80
2017-08-06T22:04:29.184Z,15.80
2017-08-06T22:06:58.304Z,15.70
2017-08-06T22:09:26.549Z,15.70
2017-08-06T22:11:54.838Z,15.70
2017-08-06T22:14:23.127Z,15.70
2017-08-06T22:16:51.764Z,15.60
2017-08-06T22:19:20.021Z,15.60
2017-08-06T22:21:48.311Z,15.60
2017-08-06T22:24:27.269Z,15.60
2017-08-06T22:26:55.519Z,15.60
2017-08-06T22:29:23.792Z,15.50
2017-08-06T22:31:52.110Z,15.40
2017-08-06T22:34:20.416Z,15.40
2017-08-06T22:36:48.718Z,15.40
2017-08-06T22:39:22.996Z,15.40
2017-08-06T22:41:57.286Z,15.40
2017-08-06T22:44:31.455Z,15.40
2017-08-06T22:47:05.792Z,15.30
2017-08-06T22:49:39.965Z,15.30
2017-08-06T22:52:14.253Z,15.20
2017-08-06T22:54:48.503Z,15.20
2017-08-06T22:57:23.143Z,15.20
2017-08-06T23:00:07.214Z,15.20
2017-08-06T23:02:37.260Z,15.20
2017-08-06T23:05:11.450Z,15.10
2017-08-06T23:07:45.805Z,15.00
2017-08-06T23:10:14.140Z,15.00
2017-08-06T23:12:45.875Z,14.90
2017-08-06T23:15:14.594Z,14.80
2017-08-06T23:17:42.892Z,14.80
2017-08-06T23:20:11.279Z,14.80
2017-08-06T23:22:39.631Z,14.80
2017-08-06T23:25:08.796Z,14.70
2017-08-06T23:27:37.655Z,14.80
2017-08-06T23:30:05.905Z,14.80
2017-08-06T23:32:34.184Z,14.80
2017-08-06T23:35:02.844Z,14.80
2017-08-06T23:37:31.241Z,14.80
2017-08-06T23:39:59.516Z,14.80
2017-08-06T23:42:34.073Z,14.80
2017-08-06T23:45:02.436Z,14.80
2017-08-06T23:47:31.005Z,14.80
2017-08-06T23:49:59.330Z,14.90
2017-08-06T23:52:27.681Z,14.80
2017-08-06T23:54:56.064Z,14.80
2017-08-06T23:57:24.559Z,14.70
2017-08-06T23:59:53.218Z,14.80
